Terminal Aerodrome Forecast
Issued by NWS

Home | Current Version | Previous Version | Text Only | Print | Product List | Glossary On
Versions: 1 2 3 4 5 6 7 8 9 10 11 12 13 14
000
FTUS44 KLZK 291700
TAFBPK
TAF
KBPK 291730Z 2918/3018 15008KT P6SM SKC
     FM292230 26005KT P6SM BKN120
     FM300200 34006KT P6SM SCT040
     FM301300 05006KT P6SM SKC
     FM301730 13006KT P6SM SKC=

USA.gov is the U.S. government's official web portal to all federal, state and local government web resources and services.